sensor_id;sensor_type;location;lat;lon;timestamp;P1;durP1;ratioP1;P2;durP2;ratioP2
9536;SDS011;4807;48.024;11.726;2022-12-18T00:01:56;30.93;;;14.97;;
9536;SDS011;4807;48.024;11.726;2022-12-18T00:05:06;28.10;;;14.07;;
9536;SDS011;4807;48.024;11.726;2022-12-18T00:08:15;28.57;;;14.87;;
9536;SDS011;4807;48.024;11.726;2022-12-18T00:11:27;28.57;;;14.00;;
9536;SDS011;4807;48.024;11.726;2022-12-18T00:14:37;31.80;;;15.10;;
9536;SDS011;4807;48.024;11.726;2022-12-18T00:17:49;30.03;;;13.97;;
9536;SDS011;4807;48.024;11.726;2022-12-18T00:20:58;29.27;;;12.90;;
9536;SDS011;4807;48.024;11.726;2022-12-18T00:24:08;35.87;;;14.90;;
9536;SDS011;4807;48.024;11.726;2022-12-18T00:27:19;26.30;;;14.10;;
9536;SDS011;4807;48.024;11.726;2022-12-18T00:30:28;32.63;;;14.73;;
9536;SDS011;4807;48.024;11.726;2022-12-18T00:33:37;34.57;;;16.53;;
9536;SDS011;4807;48.024;11.726;2022-12-18T00:36:48;34.10;;;15.27;;
9536;SDS011;4807;48.024;11.726;2022-12-18T00:39:57;38.33;;;16.07;;
9536;SDS011;4807;48.024;11.726;2022-12-18T00:43:09;30.33;;;14.90;;
9536;SDS011;4807;48.024;11.726;2022-12-18T00:46:17;32.23;;;15.33;;
9536;SDS011;4807;48.024;11.726;2022-12-18T00:49:27;33.47;;;15.37;;
9536;SDS011;4807;48.024;11.726;2022-12-18T00:52:35;30.10;;;13.37;;
9536;SDS011;4807;48.024;11.726;2022-12-18T00:55:43;31.87;;;16.10;;
9536;SDS011;4807;48.024;11.726;2022-12-18T00:58:54;36.50;;;16.03;;
9536;SDS011;4807;48.024;11.726;2022-12-18T01:02:02;33.07;;;15.27;;
9536;SDS011;4807;48.024;11.726;2022-12-18T01:05:11;36.03;;;14.63;;
9536;SDS011;4807;48.024;11.726;2022-12-18T01:08:20;28.53;;;14.10;;
9536;SDS011;4807;48.024;11.726;2022-12-18T01:11:29;27.70;;;14.83;;
9536;SDS011;4807;48.024;11.726;2022-12-18T01:14:38;31.50;;;14.57;;
9536;SDS011;4807;48.024;11.726;2022-12-18T01:17:47;32.57;;;15.57;;
9536;SDS011;4807;48.024;11.726;2022-12-18T01:20:55;35.00;;;15.50;;
9536;SDS011;4807;48.024;11.726;2022-12-18T01:24:04;33.53;;;14.67;;
9536;SDS011;4807;48.024;11.726;2022-12-18T01:27:13;33.87;;;14.50;;
9536;SDS011;4807;48.024;11.726;2022-12-18T01:30:23;32.07;;;15.93;;
9536;SDS011;4807;48.024;11.726;2022-12-18T01:33:32;34.73;;;15.23;;
9536;SDS011;4807;48.024;11.726;2022-12-18T01:36:40;34.67;;;16.83;;
9536;SDS011;4807;48.024;11.726;2022-12-18T01:39:49;33.63;;;16.03;;
9536;SDS011;4807;48.024;11.726;2022-12-18T01:46:41;34.70;;;16.00;;
9536;SDS011;4807;48.024;11.726;2022-12-18T01:49:50;33.37;;;16.00;;
9536;SDS011;4807;48.024;11.726;2022-12-18T01:53:00;33.47;;;16.30;;
9536;SDS011;4807;48.024;11.726;2022-12-18T01:56:14;36.33;;;15.50;;
9536;SDS011;4807;48.024;11.726;2022-12-18T01:59:26;35.87;;;16.37;;
9536;SDS011;4807;48.024;11.726;2022-12-18T02:02:37;34.73;;;16.53;;
9536;SDS011;4807;48.024;11.726;2022-12-18T02:05:49;36.50;;;15.30;;
9536;SDS011;4807;48.024;11.726;2022-12-18T02:09:09;43.30;;;17.43;;
9536;SDS011;4807;48.024;11.726;2022-12-18T02:12:28;39.33;;;16.60;;
9536;SDS011;4807;48.024;11.726;2022-12-18T02:15:47;31.80;;;16.03;;
9536;SDS011;4807;48.024;11.726;2022-12-18T02:19:11;31.93;;;16.47;;
9536;SDS011;4807;48.024;11.726;2022-12-18T02:22:48;37.27;;;16.70;;
9536;SDS011;4807;48.024;11.726;2022-12-18T02:26:17;34.97;;;17.30;;
9536;SDS011;4807;48.024;11.726;2022-12-18T02:29:34;38.80;;;18.43;;
9536;SDS011;4807;48.024;11.726;2022-12-18T02:32:49;37.70;;;17.27;;
9536;SDS011;4807;48.024;11.726;2022-12-18T02:36:01;40.07;;;16.47;;
9536;SDS011;4807;48.024;11.726;2022-12-18T02:39:13;35.47;;;16.53;;
9536;SDS011;4807;48.024;11.726;2022-12-18T02:42:36;31.67;;;16.47;;
9536;SDS011;4807;48.024;11.726;2022-12-18T02:45:48;36.80;;;16.37;;
9536;SDS011;4807;48.024;11.726;2022-12-18T02:49:02;30.33;;;15.17;;
9536;SDS011;4807;48.024;11.726;2022-12-18T02:52:28;30.33;;;15.13;;
9536;SDS011;4807;48.024;11.726;2022-12-18T02:55:48;30.37;;;15.50;;
9536;SDS011;4807;48.024;11.726;2022-12-18T02:59:08;34.03;;;16.20;;
9536;SDS011;4807;48.024;11.726;2022-12-18T03:02:33;33.20;;;15.10;;
9536;SDS011;4807;48.024;11.726;2022-12-18T03:05:52;29.97;;;15.17;;
9536;SDS011;4807;48.024;11.726;2022-12-18T03:09:09;35.77;;;16.30;;
9536;SDS011;4807;48.024;11.726;2022-12-18T03:12:23;33.60;;;17.30;;
9536;SDS011;4807;48.024;11.726;2022-12-18T03:15:41;31.50;;;14.80;;
9536;SDS011;4807;48.024;11.726;2022-12-18T03:18:58;32.17;;;15.90;;
9536;SDS011;4807;48.024;11.726;2022-12-18T03:22:11;30.97;;;15.60;;
9536;SDS011;4807;48.024;11.726;2022-12-18T03:25:27;35.43;;;16.47;;
9536;SDS011;4807;48.024;11.726;2022-12-18T03:28:42;36.47;;;16.37;;
9536;SDS011;4807;48.024;11.726;2022-12-18T03:32:00;32.50;;;16.43;;
9536;SDS011;4807;48.024;11.726;2022-12-18T03:35:17;40.20;;;17.40;;
9536;SDS011;4807;48.024;11.726;2022-12-18T03:38:32;31.37;;;16.90;;
9536;SDS011;4807;48.024;11.726;2022-12-18T03:41:42;34.37;;;16.33;;
9536;SDS011;4807;48.024;11.726;2022-12-18T03:45:08;36.70;;;16.13;;
9536;SDS011;4807;48.024;11.726;2022-12-18T03:48:27;31.37;;;16.37;;
9536;SDS011;4807;48.024;11.726;2022-12-18T03:51:48;37.20;;;17.10;;
9536;SDS011;4807;48.024;11.726;2022-12-18T03:55:04;31.83;;;16.87;;
9536;SDS011;4807;48.024;11.726;2022-12-18T03:58:19;31.50;;;15.77;;
9536;SDS011;4807;48.024;11.726;2022-12-18T04:01:46;28.87;;;15.10;;
9536;SDS011;4807;48.024;11.726;2022-12-18T04:05:05;32.27;;;15.60;;
9536;SDS011;4807;48.024;11.726;2022-12-18T04:08:19;28.17;;;14.47;;
9536;SDS011;4807;48.024;11.726;2022-12-18T04:11:39;35.90;;;14.87;;
9536;SDS011;4807;48.024;11.726;2022-12-18T04:14:52;31.67;;;15.90;;
9536;SDS011;4807;48.024;11.726;2022-12-18T04:18:01;33.10;;;15.50;;
9536;SDS011;4807;48.024;11.726;2022-12-18T04:21:19;25.77;;;12.70;;
9536;SDS011;4807;48.024;11.726;2022-12-18T04:24:31;33.70;;;15.43;;
9536;SDS011;4807;48.024;11.726;2022-12-18T04:27:49;31.13;;;13.80;;
9536;SDS011;4807;48.024;11.726;2022-12-18T04:30:58;31.57;;;14.40;;
9536;SDS011;4807;48.024;11.726;2022-12-18T04:34:06;28.23;;;13.90;;
9536;SDS011;4807;48.024;11.726;2022-12-18T04:37:24;28.63;;;14.10;;
9536;SDS011;4807;48.024;11.726;2022-12-18T04:40:34;28.63;;;14.27;;
9536;SDS011;4807;48.024;11.726;2022-12-18T04:43:47;27.83;;;13.77;;
9536;SDS011;4807;48.024;11.726;2022-12-18T04:46:56;24.00;;;12.50;;
9536;SDS011;4807;48.024;11.726;2022-12-18T04:50:05;27.87;;;13.63;;
9536;SDS011;4807;48.024;11.726;2022-12-18T04:53:15;29.33;;;14.53;;
9536;SDS011;4807;48.024;11.726;2022-12-18T04:56:24;26.37;;;12.53;;
9536;SDS011;4807;48.024;11.726;2022-12-18T04:59:33;24.80;;;13.10;;
9536;SDS011;4807;48.024;11.726;2022-12-18T05:02:41;26.53;;;14.00;;
9536;SDS011;4807;48.024;11.726;2022-12-18T05:05:50;29.40;;;13.80;;
9536;SDS011;4807;48.024;11.726;2022-12-18T05:09:01;25.73;;;13.77;;
9536;SDS011;4807;48.024;11.726;2022-12-18T05:12:11;27.90;;;12.90;;
9536;SDS011;4807;48.024;11.726;2022-12-18T05:15:20;28.37;;;13.23;;
9536;SDS011;4807;48.024;11.726;2022-12-18T05:18:28;29.13;;;13.47;;
9536;SDS011;4807;48.024;11.726;2022-12-18T05:21:36;25.33;;;12.47;;
9536;SDS011;4807;48.024;11.726;2022-12-18T05:24:47;22.60;;;12.03;;
9536;SDS011;4807;48.024;11.726;2022-12-18T05:27:56;25.03;;;12.43;;
9536;SDS011;4807;48.024;11.726;2022-12-18T05:31:05;26.37;;;13.20;;
9536;SDS011;4807;48.024;11.726;2022-12-18T05:34:13;23.30;;;12.07;;
9536;SDS011;4807;48.024;11.726;2022-12-18T05:37:22;27.63;;;13.43;;
9536;SDS011;4807;48.024;11.726;2022-12-18T05:40:32;26.03;;;12.77;;
9536;SDS011;4807;48.024;11.726;2022-12-18T05:43:40;25.13;;;12.93;;
9536;SDS011;4807;48.024;11.726;2022-12-18T05:46:50;26.07;;;13.37;;
9536;SDS011;4807;48.024;11.726;2022-12-18T05:49:59;30.70;;;14.33;;
9536;SDS011;4807;48.024;11.726;2022-12-18T05:53:08;23.77;;;13.00;;
9536;SDS011;4807;48.024;11.726;2022-12-18T05:56:19;24.97;;;13.17;;
9536;SDS011;4807;48.024;11.726;2022-12-18T05:59:30;26.13;;;13.23;;
9536;SDS011;4807;48.024;11.726;2022-12-18T06:02:38;28.63;;;14.00;;
9536;SDS011;4807;48.024;11.726;2022-12-18T06:05:47;25.30;;;13.20;;
9536;SDS011;4807;48.024;11.726;2022-12-18T06:08:57;25.60;;;13.20;;
9536;SDS011;4807;48.024;11.726;2022-12-18T06:12:07;25.63;;;12.97;;
9536;SDS011;4807;48.024;11.726;2022-12-18T06:15:17;23.07;;;12.03;;
9536;SDS011;4807;48.024;11.726;2022-12-18T06:18:25;22.90;;;12.17;;
9536;SDS011;4807;48.024;11.726;2022-12-18T06:21:34;22.07;;;13.03;;
9536;SDS011;4807;48.024;11.726;2022-12-18T06:24:42;24.00;;;12.60;;
9536;SDS011;4807;48.024;11.726;2022-12-18T06:27:52;25.57;;;12.43;;
9536;SDS011;4807;48.024;11.726;2022-12-18T06:31:02;26.07;;;12.03;;
9536;SDS011;4807;48.024;11.726;2022-12-18T06:34:12;25.37;;;11.53;;
9536;SDS011;4807;48.024;11.726;2022-12-18T06:37:20;25.93;;;11.70;;
9536;SDS011;4807;48.024;11.726;2022-12-18T06:40:31;23.93;;;10.67;;
9536;SDS011;4807;48.024;11.726;2022-12-18T06:43:42;25.53;;;11.50;;
9536;SDS011;4807;48.024;11.726;2022-12-18T06:46:51;30.27;;;12.73;;
9536;SDS011;4807;48.024;11.726;2022-12-18T06:50:00;26.50;;;12.30;;
9536;SDS011;4807;48.024;11.726;2022-12-18T06:53:09;21.97;;;11.83;;
9536;SDS011;4807;48.024;11.726;2022-12-18T06:56:18;25.47;;;12.73;;
9536;SDS011;4807;48.024;11.726;2022-12-18T06:59:27;27.57;;;13.27;;
9536;SDS011;4807;48.024;11.726;2022-12-18T07:02:36;26.33;;;11.90;;
9536;SDS011;4807;48.024;11.726;2022-12-18T07:05:45;22.83;;;11.97;;
9536;SDS011;4807;48.024;11.726;2022-12-18T07:08:54;24.67;;;12.87;;
9536;SDS011;4807;48.024;11.726;2022-12-18T07:12:03;25.63;;;12.57;;
9536;SDS011;4807;48.024;11.726;2022-12-18T07:15:16;20.13;;;10.47;;
9536;SDS011;4807;48.024;11.726;2022-12-18T07:18:25;24.83;;;11.30;;
9536;SDS011;4807;48.024;11.726;2022-12-18T07:21:34;20.63;;;10.47;;
9536;SDS011;4807;48.024;11.726;2022-12-18T07:24:42;21.93;;;10.53;;
9536;SDS011;4807;48.024;11.726;2022-12-18T07:27:50;22.67;;;11.60;;
9536;SDS011;4807;48.024;11.726;2022-12-18T07:31:01;21.47;;;11.23;;
9536;SDS011;4807;48.024;11.726;2022-12-18T07:34:12;21.87;;;11.97;;
9536;SDS011;4807;48.024;11.726;2022-12-18T07:37:22;26.70;;;11.17;;
9536;SDS011;4807;48.024;11.726;2022-12-18T07:40:30;23.20;;;10.60;;
9536;SDS011;4807;48.024;11.726;2022-12-18T07:43:39;22.43;;;10.87;;
9536;SDS011;4807;48.024;11.726;2022-12-18T07:46:51;25.57;;;12.03;;
9536;SDS011;4807;48.024;11.726;2022-12-18T07:50:00;22.33;;;11.10;;
9536;SDS011;4807;48.024;11.726;2022-12-18T07:53:08;22.43;;;10.00;;
9536;SDS011;4807;48.024;11.726;2022-12-18T07:56:18;17.43;;;9.33;;
9536;SDS011;4807;48.024;11.726;2022-12-18T07:59:36;22.37;;;11.37;;
9536;SDS011;4807;48.024;11.726;2022-12-18T08:02:47;20.87;;;11.17;;
9536;SDS011;4807;48.024;11.726;2022-12-18T08:05:57;22.43;;;10.00;;
9536;SDS011;4807;48.024;11.726;2022-12-18T08:09:09;24.40;;;11.37;;
9536;SDS011;4807;48.024;11.726;2022-12-18T08:12:18;20.80;;;9.87;;
9536;SDS011;4807;48.024;11.726;2022-12-18T08:15:27;19.70;;;10.43;;
9536;SDS011;4807;48.024;11.726;2022-12-18T08:18:37;24.33;;;11.63;;
9536;SDS011;4807;48.024;11.726;2022-12-18T08:21:46;22.50;;;10.17;;
9536;SDS011;4807;48.024;11.726;2022-12-18T08:24:54;15.93;;;9.50;;
9536;SDS011;4807;48.024;11.726;2022-12-18T08:28:03;24.33;;;10.43;;
9536;SDS011;4807;48.024;11.726;2022-12-18T08:31:11;19.07;;;9.77;;
9536;SDS011;4807;48.024;11.726;2022-12-18T08:34:21;21.80;;;10.43;;
9536;SDS011;4807;48.024;11.726;2022-12-18T08:37:30;20.03;;;9.83;;
9536;SDS011;4807;48.024;11.726;2022-12-18T08:40:38;21.00;;;10.03;;
9536;SDS011;4807;48.024;11.726;2022-12-18T08:43:47;23.00;;;11.10;;
9536;SDS011;4807;48.024;11.726;2022-12-18T08:47:12;18.40;;;9.20;;
9536;SDS011;4807;48.024;11.726;2022-12-18T08:50:23;21.20;;;10.17;;
9536;SDS011;4807;48.024;11.726;2022-12-18T08:53:31;23.37;;;10.73;;
9536;SDS011;4807;48.024;11.726;2022-12-18T08:56:41;16.77;;;10.03;;
9536;SDS011;4807;48.024;11.726;2022-12-18T08:59:49;18.27;;;10.00;;
9536;SDS011;4807;48.024;11.726;2022-12-18T09:02:58;19.10;;;10.03;;
9536;SDS011;4807;48.024;11.726;2022-12-18T09:06:12;17.60;;;10.27;;
9536;SDS011;4807;48.024;11.726;2022-12-18T09:09:22;18.63;;;9.40;;
9536;SDS011;4807;48.024;11.726;2022-12-18T09:12:31;17.43;;;8.70;;
9536;SDS011;4807;48.024;11.726;2022-12-18T09:15:40;21.83;;;9.73;;
9536;SDS011;4807;48.024;11.726;2022-12-18T09:18:50;16.57;;;8.63;;
9536;SDS011;4807;48.024;11.726;2022-12-18T09:22:01;18.00;;;8.67;;
9536;SDS011;4807;48.024;11.726;2022-12-18T09:25:11;18.87;;;9.70;;
9536;SDS011;4807;48.024;11.726;2022-12-18T09:28:19;19.90;;;9.87;;
9536;SDS011;4807;48.024;11.726;2022-12-18T09:31:28;18.33;;;9.83;;
9536;SDS011;4807;48.024;11.726;2022-12-18T09:34:37;16.40;;;8.47;;
9536;SDS011;4807;48.024;11.726;2022-12-18T09:37:47;20.47;;;9.40;;
9536;SDS011;4807;48.024;11.726;2022-12-18T09:40:57;21.83;;;11.87;;
9536;SDS011;4807;48.024;11.726;2022-12-18T09:44:23;16.47;;;9.37;;
9536;SDS011;4807;48.024;11.726;2022-12-18T09:47:35;19.23;;;9.50;;
9536;SDS011;4807;48.024;11.726;2022-12-18T09:50:47;19.03;;;9.10;;
9536;SDS011;4807;48.024;11.726;2022-12-18T09:54:00;21.13;;;9.30;;
9536;SDS011;4807;48.024;11.726;2022-12-18T09:57:15;18.70;;;8.70;;
9536;SDS011;4807;48.024;11.726;2022-12-18T10:00:28;16.43;;;9.63;;
9536;SDS011;4807;48.024;11.726;2022-12-18T10:03:36;17.70;;;9.63;;
9536;SDS011;4807;48.024;11.726;2022-12-18T10:06:46;19.70;;;9.80;;
9536;SDS011;4807;48.024;11.726;2022-12-18T10:10:06;20.80;;;10.60;;
9536;SDS011;4807;48.024;11.726;2022-12-18T10:13:27;18.93;;;10.23;;
9536;SDS011;4807;48.024;11.726;2022-12-18T10:16:47;20.57;;;9.47;;
9536;SDS011;4807;48.024;11.726;2022-12-18T10:20:10;20.57;;;9.37;;
9536;SDS011;4807;48.024;11.726;2022-12-18T10:23:29;14.40;;;8.40;;
9536;SDS011;4807;48.024;11.726;2022-12-18T10:26:56;21.00;;;9.23;;
9536;SDS011;4807;48.024;11.726;2022-12-18T10:30:23;16.37;;;8.87;;
9536;SDS011;4807;48.024;11.726;2022-12-18T10:33:34;16.53;;;8.83;;
9536;SDS011;4807;48.024;11.726;2022-12-18T10:36:43;17.23;;;9.33;;
9536;SDS011;4807;48.024;11.726;2022-12-18T10:40:06;19.90;;;10.70;;
9536;SDS011;4807;48.024;11.726;2022-12-18T10:43:29;19.33;;;10.40;;
9536;SDS011;4807;48.024;11.726;2022-12-18T10:46:40;17.27;;;8.40;;
9536;SDS011;4807;48.024;11.726;2022-12-18T10:49:50;18.80;;;8.90;;
9536;SDS011;4807;48.024;11.726;2022-12-18T10:53:03;19.50;;;9.30;;
9536;SDS011;4807;48.024;11.726;2022-12-18T10:56:13;17.97;;;8.87;;
9536;SDS011;4807;48.024;11.726;2022-12-18T10:59:30;18.00;;;9.17;;
9536;SDS011;4807;48.024;11.726;2022-12-18T11:02:59;16.73;;;8.90;;
9536;SDS011;4807;48.024;11.726;2022-12-18T11:06:10;14.73;;;7.90;;
9536;SDS011;4807;48.024;11.726;2022-12-18T11:09:22;18.17;;;7.97;;
9536;SDS011;4807;48.024;11.726;2022-12-18T11:12:32;18.87;;;9.37;;
9536;SDS011;4807;48.024;11.726;2022-12-18T11:15:42;14.10;;;9.23;;
9536;SDS011;4807;48.024;11.726;2022-12-18T11:18:51;15.27;;;8.80;;
9536;SDS011;4807;48.024;11.726;2022-12-18T11:22:01;14.83;;;8.57;;
9536;SDS011;4807;48.024;11.726;2022-12-18T11:25:28;16.87;;;8.70;;
9536;SDS011;4807;48.024;11.726;2022-12-18T11:28:41;17.33;;;8.27;;
9536;SDS011;4807;48.024;11.726;2022-12-18T11:32:04;17.33;;;8.87;;
9536;SDS011;4807;48.024;11.726;2022-12-18T11:35:47;16.60;;;8.63;;
9536;SDS011;4807;48.024;11.726;2022-12-18T11:38:59;15.40;;;8.77;;
9536;SDS011;4807;48.024;11.726;2022-12-18T11:42:22;21.20;;;9.30;;
9536;SDS011;4807;48.024;11.726;2022-12-18T11:45:43;18.70;;;8.60;;
9536;SDS011;4807;48.024;11.726;2022-12-18T11:49:03;17.20;;;9.07;;
9536;SDS011;4807;48.024;11.726;2022-12-18T11:52:21;13.27;;;7.87;;
9536;SDS011;4807;48.024;11.726;2022-12-18T11:55:46;16.90;;;7.20;;
9536;SDS011;4807;48.024;11.726;2022-12-18T11:59:09;15.27;;;8.23;;
9536;SDS011;4807;48.024;11.726;2022-12-18T12:06:29;20.43;;;9.10;;
9536;SDS011;4807;48.024;11.726;2022-12-18T12:09:51;19.50;;;9.03;;
9536;SDS011;4807;48.024;11.726;2022-12-18T12:13:18;17.20;;;8.57;;
9536;SDS011;4807;48.024;11.726;2022-12-18T12:16:45;17.13;;;8.50;;
9536;SDS011;4807;48.024;11.726;2022-12-18T12:20:07;16.60;;;8.73;;
9536;SDS011;4807;48.024;11.726;2022-12-18T12:23:29;20.10;;;9.83;;
9536;SDS011;4807;48.024;11.726;2022-12-18T12:26:53;21.97;;;11.77;;
9536;SDS011;4807;48.024;11.726;2022-12-18T12:30:24;18.70;;;10.00;;
9536;SDS011;4807;48.024;11.726;2022-12-18T12:33:48;18.43;;;9.90;;
9536;SDS011;4807;48.024;11.726;2022-12-18T12:37:12;19.73;;;10.47;;
9536;SDS011;4807;48.024;11.726;2022-12-18T12:40:37;18.73;;;10.73;;
9536;SDS011;4807;48.024;11.726;2022-12-18T12:44:07;20.30;;;10.17;;
9536;SDS011;4807;48.024;11.726;2022-12-18T12:47:25;15.67;;;10.03;;
9536;SDS011;4807;48.024;11.726;2022-12-18T12:50:40;16.07;;;8.63;;
9536;SDS011;4807;48.024;11.726;2022-12-18T12:53:49;18.67;;;10.17;;
9536;SDS011;4807;48.024;11.726;2022-12-18T12:57:09;17.93;;;9.90;;
9536;SDS011;4807;48.024;11.726;2022-12-18T13:00:27;18.03;;;9.83;;
9536;SDS011;4807;48.024;11.726;2022-12-18T13:03:50;20.87;;;9.87;;
9536;SDS011;4807;48.024;11.726;2022-12-18T13:07:12;22.80;;;10.27;;
9536;SDS011;4807;48.024;11.726;2022-12-18T13:10:38;16.00;;;9.63;;
9536;SDS011;4807;48.024;11.726;2022-12-18T13:13:51;15.87;;;9.23;;
9536;SDS011;4807;48.024;11.726;2022-12-18T13:17:22;21.77;;;10.87;;
9536;SDS011;4807;48.024;11.726;2022-12-18T13:20:38;17.23;;;9.93;;
9536;SDS011;4807;48.024;11.726;2022-12-18T13:24:13;20.90;;;11.17;;
9536;SDS011;4807;48.024;11.726;2022-12-18T13:27:46;18.57;;;10.03;;
9536;SDS011;4807;48.024;11.726;2022-12-18T13:35:39;20.30;;;9.17;;
9536;SDS011;4807;48.024;11.726;2022-12-18T13:42:42;21.47;;;10.27;;
9536;SDS011;4807;48.024;11.726;2022-12-18T13:46:22;12.43;;;7.77;;
9536;SDS011;4807;48.024;11.726;2022-12-18T13:49:37;18.57;;;9.00;;
9536;SDS011;4807;48.024;11.726;2022-12-18T13:52:48;19.63;;;9.83;;
9536;SDS011;4807;48.024;11.726;2022-12-18T13:56:00;19.03;;;10.00;;
9536;SDS011;4807;48.024;11.726;2022-12-18T13:59:13;19.33;;;9.40;;
9536;SDS011;4807;48.024;11.726;2022-12-18T14:02:29;20.17;;;10.00;;
9536;SDS011;4807;48.024;11.726;2022-12-18T14:05:43;18.73;;;9.97;;
9536;SDS011;4807;48.024;11.726;2022-12-18T14:08:53;19.53;;;9.77;;
9536;SDS011;4807;48.024;11.726;2022-12-18T14:12:03;19.33;;;9.00;;
9536;SDS011;4807;48.024;11.726;2022-12-18T14:15:33;24.60;;;10.80;;
9536;SDS011;4807;48.024;11.726;2022-12-18T14:18:48;19.73;;;9.80;;
9536;SDS011;4807;48.024;11.726;2022-12-18T14:22:16;20.23;;;9.97;;
9536;SDS011;4807;48.024;11.726;2022-12-18T14:25:27;19.77;;;11.33;;
9536;SDS011;4807;48.024;11.726;2022-12-18T14:28:42;19.87;;;9.90;;
9536;SDS011;4807;48.024;11.726;2022-12-18T14:32:04;19.10;;;9.53;;
9536;SDS011;4807;48.024;11.726;2022-12-18T14:35:23;21.87;;;10.73;;
9536;SDS011;4807;48.024;11.726;2022-12-18T14:38:34;23.50;;;10.67;;
9536;SDS011;4807;48.024;11.726;2022-12-18T14:41:45;19.50;;;9.33;;
9536;SDS011;4807;48.024;11.726;2022-12-18T14:48:47;22.90;;;10.20;;
9536;SDS011;4807;48.024;11.726;2022-12-18T14:51:56;18.30;;;9.20;;
9536;SDS011;4807;48.024;11.726;2022-12-18T14:55:15;19.00;;;8.83;;
9536;SDS011;4807;48.024;11.726;2022-12-18T14:58:25;19.63;;;10.03;;
9536;SDS011;4807;48.024;11.726;2022-12-18T15:01:34;21.07;;;10.80;;
9536;SDS011;4807;48.024;11.726;2022-12-18T15:04:45;16.00;;;9.10;;
9536;SDS011;4807;48.024;11.726;2022-12-18T15:07:55;17.87;;;9.33;;
9536;SDS011;4807;48.024;11.726;2022-12-18T15:14:54;18.07;;;9.60;;
9536;SDS011;4807;48.024;11.726;2022-12-18T15:18:03;17.27;;;9.50;;
9536;SDS011;4807;48.024;11.726;2022-12-18T15:21:20;22.23;;;11.80;;
9536;SDS011;4807;48.024;11.726;2022-12-18T15:24:30;19.37;;;9.53;;
9536;SDS011;4807;48.024;11.726;2022-12-18T15:27:45;21.50;;;10.57;;
9536;SDS011;4807;48.024;11.726;2022-12-18T15:31:02;21.77;;;11.43;;
9536;SDS011;4807;48.024;11.726;2022-12-18T15:34:27;20.97;;;10.30;;
9536;SDS011;4807;48.024;11.726;2022-12-18T15:37:36;22.93;;;10.73;;
9536;SDS011;4807;48.024;11.726;2022-12-18T15:40:46;22.37;;;11.50;;
9536;SDS011;4807;48.024;11.726;2022-12-18T15:43:56;26.67;;;11.37;;
9536;SDS011;4807;48.024;11.726;2022-12-18T15:47:07;23.77;;;10.83;;
9536;SDS011;4807;48.024;11.726;2022-12-18T15:50:20;24.13;;;11.93;;
9536;SDS011;4807;48.024;11.726;2022-12-18T15:53:30;23.07;;;12.27;;
9536;SDS011;4807;48.024;11.726;2022-12-18T15:56:40;21.20;;;10.63;;
9536;SDS011;4807;48.024;11.726;2022-12-18T16:00:11;24.83;;;12.07;;
9536;SDS011;4807;48.024;11.726;2022-12-18T16:03:20;26.07;;;12.93;;
9536;SDS011;4807;48.024;11.726;2022-12-18T16:06:30;27.13;;;11.73;;
9536;SDS011;4807;48.024;11.726;2022-12-18T16:09:58;23.17;;;11.50;;
9536;SDS011;4807;48.024;11.726;2022-12-18T16:13:09;23.70;;;11.57;;
9536;SDS011;4807;48.024;11.726;2022-12-18T16:16:20;21.57;;;10.17;;
9536;SDS011;4807;48.024;11.726;2022-12-18T16:19:29;21.73;;;11.57;;
9536;SDS011;4807;48.024;11.726;2022-12-18T16:22:38;20.80;;;10.30;;
9536;SDS011;4807;48.024;11.726;2022-12-18T16:25:46;19.60;;;10.23;;
9536;SDS011;4807;48.024;11.726;2022-12-18T16:28:55;20.47;;;9.93;;
9536;SDS011;4807;48.024;11.726;2022-12-18T16:32:04;19.20;;;9.03;;
9536;SDS011;4807;48.024;11.726;2022-12-18T16:35:14;19.47;;;10.37;;
9536;SDS011;4807;48.024;11.726;2022-12-18T16:38:24;22.00;;;10.30;;
9536;SDS011;4807;48.024;11.726;2022-12-18T16:41:32;30.43;;;15.10;;
9536;SDS011;4807;48.024;11.726;2022-12-18T16:44:41;19.80;;;10.90;;
9536;SDS011;4807;48.024;11.726;2022-12-18T16:47:53;23.20;;;12.10;;
9536;SDS011;4807;48.024;11.726;2022-12-18T16:51:02;21.50;;;12.47;;
9536;SDS011;4807;48.024;11.726;2022-12-18T16:54:12;24.37;;;12.37;;
9536;SDS011;4807;48.024;11.726;2022-12-18T16:57:25;20.40;;;11.13;;
9536;SDS011;4807;48.024;11.726;2022-12-18T17:00:37;18.10;;;10.63;;
9536;SDS011;4807;48.024;11.726;2022-12-18T17:03:51;26.30;;;12.60;;
9536;SDS011;4807;48.024;11.726;2022-12-18T17:07:01;23.03;;;11.17;;
9536;SDS011;4807;48.024;11.726;2022-12-18T17:10:10;22.40;;;11.83;;
9536;SDS011;4807;48.024;11.726;2022-12-18T17:13:18;23.40;;;11.07;;
9536;SDS011;4807;48.024;11.726;2022-12-18T17:16:31;23.00;;;12.40;;
9536;SDS011;4807;48.024;11.726;2022-12-18T17:19:42;24.93;;;12.37;;
9536;SDS011;4807;48.024;11.726;2022-12-18T17:22:50;23.03;;;11.83;;
9536;SDS011;4807;48.024;11.726;2022-12-18T17:25:59;25.17;;;11.63;;
9536;SDS011;4807;48.024;11.726;2022-12-18T17:29:08;22.20;;;11.57;;
9536;SDS011;4807;48.024;11.726;2022-12-18T17:32:24;25.93;;;12.97;;
9536;SDS011;4807;48.024;11.726;2022-12-18T17:35:34;26.40;;;13.23;;
9536;SDS011;4807;48.024;11.726;2022-12-18T17:38:42;27.70;;;13.27;;
9536;SDS011;4807;48.024;11.726;2022-12-18T17:41:58;28.30;;;15.27;;
9536;SDS011;4807;48.024;11.726;2022-12-18T17:45:07;26.33;;;12.97;;
9536;SDS011;4807;48.024;11.726;2022-12-18T17:48:16;23.63;;;12.03;;
9536;SDS011;4807;48.024;11.726;2022-12-18T17:51:26;23.93;;;12.63;;
9536;SDS011;4807;48.024;11.726;2022-12-18T17:54:35;25.40;;;12.30;;
9536;SDS011;4807;48.024;11.726;2022-12-18T17:57:46;32.43;;;15.07;;
9536;SDS011;4807;48.024;11.726;2022-12-18T18:00:55;29.27;;;13.80;;
9536;SDS011;4807;48.024;11.726;2022-12-18T18:04:03;28.97;;;14.77;;
9536;SDS011;4807;48.024;11.726;2022-12-18T18:07:14;39.50;;;16.00;;
9536;SDS011;4807;48.024;11.726;2022-12-18T18:10:22;32.17;;;15.37;;
9536;SDS011;4807;48.024;11.726;2022-12-18T18:13:32;32.33;;;14.73;;
9536;SDS011;4807;48.024;11.726;2022-12-18T18:16:59;32.60;;;16.10;;
9536;SDS011;4807;48.024;11.726;2022-12-18T18:20:10;35.53;;;15.27;;
9536;SDS011;4807;48.024;11.726;2022-12-18T18:23:29;31.30;;;14.20;;
9536;SDS011;4807;48.024;11.726;2022-12-18T18:26:38;26.07;;;13.03;;
9536;SDS011;4807;48.024;11.726;2022-12-18T18:29:47;28.97;;;12.43;;
9536;SDS011;4807;48.024;11.726;2022-12-18T18:32:56;23.90;;;12.20;;
9536;SDS011;4807;48.024;11.726;2022-12-18T18:36:04;25.77;;;13.13;;
9536;SDS011;4807;48.024;11.726;2022-12-18T18:39:19;30.50;;;12.53;;
9536;SDS011;4807;48.024;11.726;2022-12-18T18:42:27;21.97;;;12.67;;
9536;SDS011;4807;48.024;11.726;2022-12-18T18:45:36;26.47;;;12.20;;
9536;SDS011;4807;48.024;11.726;2022-12-18T18:48:47;23.87;;;12.50;;
9536;SDS011;4807;48.024;11.726;2022-12-18T18:51:56;25.97;;;11.03;;
9536;SDS011;4807;48.024;11.726;2022-12-18T18:55:06;26.07;;;13.43;;
9536;SDS011;4807;48.024;11.726;2022-12-18T18:58:30;21.53;;;11.57;;
9536;SDS011;4807;48.024;11.726;2022-12-18T19:01:39;22.23;;;11.80;;
9536;SDS011;4807;48.024;11.726;2022-12-18T19:04:47;23.00;;;12.37;;
9536;SDS011;4807;48.024;11.726;2022-12-18T19:07:55;26.97;;;11.70;;
9536;SDS011;4807;48.024;11.726;2022-12-18T19:11:07;25.30;;;12.63;;
9536;SDS011;4807;48.024;11.726;2022-12-18T19:14:41;30.93;;;13.40;;
9536;SDS011;4807;48.024;11.726;2022-12-18T19:17:50;30.70;;;14.97;;
9536;SDS011;4807;48.024;11.726;2022-12-18T19:21:00;28.47;;;13.97;;
9536;SDS011;4807;48.024;11.726;2022-12-18T19:24:11;24.37;;;11.87;;
9536;SDS011;4807;48.024;11.726;2022-12-18T19:27:20;27.70;;;12.70;;
9536;SDS011;4807;48.024;11.726;2022-12-18T19:30:29;24.70;;;12.60;;
9536;SDS011;4807;48.024;11.726;2022-12-18T19:33:39;30.33;;;14.17;;
9536;SDS011;4807;48.024;11.726;2022-12-18T19:36:50;27.27;;;11.90;;